sensor_id;sensor_type;location;lat;lon;timestamp;temperature;humidity
4962;DHT22;2496;52.468;13.342;2023-03-19T00:00:32;10.90;99.90
4962;DHT22;2496;52.468;13.342;2023-03-19T00:02:59;10.80;99.90
4962;DHT22;2496;52.468;13.342;2023-03-19T00:05:26;10.70;99.90
4962;DHT22;2496;52.468;13.342;2023-03-19T00:07:55;10.70;99.90
4962;DHT22;2496;52.468;13.342;2023-03-19T00:10:22;10.60;99.90
4962;DHT22;2496;52.468;13.342;2023-03-19T00:12:49;10.60;99.90
4962;DHT22;2496;52.468;13.342;2023-03-19T00:15:16;10.60;99.90
4962;DHT22;2496;52.468;13.342;2023-03-19T00:17:44;10.60;99.90
4962;DHT22;2496;52.468;13.342;2023-03-19T00:20:12;10.60;99.90
4962;DHT22;2496;52.468;13.342;2023-03-19T00:22:39;10.50;99.90
4962;DHT22;2496;52.468;13.342;2023-03-19T00:25:08;10.50;99.90
4962;DHT22;2496;52.468;13.342;2023-03-19T00:27:35;10.40;99.90
4962;DHT22;2496;52.468;13.342;2023-03-19T00:30:03;10.40;99.90
4962;DHT22;2496;52.468;13.342;2023-03-19T00:32:31;10.40;99.90
4962;DHT22;2496;52.468;13.342;2023-03-19T00:34:58;10.30;99.90
4962;DHT22;2496;52.468;13.342;2023-03-19T00:37:26;10.30;99.90
4962;DHT22;2496;52.468;13.342;2023-03-19T00:39:53;10.20;99.90
4962;DHT22;2496;52.468;13.342;2023-03-19T00:42:22;10.10;99.90
4962;DHT22;2496;52.468;13.342;2023-03-19T00:44:49;10.10;99.90
4962;DHT22;2496;52.468;13.342;2023-03-19T00:47:16;10.10;99.90
4962;DHT22;2496;52.468;13.342;2023-03-19T00:49:43;10.00;99.90
4962;DHT22;2496;52.468;13.342;2023-03-19T00:52:10;9.90;99.90
4962;DHT22;2496;52.468;13.342;2023-03-19T00:54:37;9.90;99.90
4962;DHT22;2496;52.468;13.342;2023-03-19T00:57:04;9.80;99.90
4962;DHT22;2496;52.468;13.342;2023-03-19T00:59:33;9.70;99.90
4962;DHT22;2496;52.468;13.342;2023-03-19T01:02:00;9.80;99.90
4962;DHT22;2496;52.468;13.342;2023-03-19T01:04:27;9.80;99.90
4962;DHT22;2496;52.468;13.342;2023-03-19T01:06:54;9.80;99.90
4962;DHT22;2496;52.468;13.342;2023-03-19T01:09:22;9.80;99.90
4962;DHT22;2496;52.468;13.342;2023-03-19T01:11:50;9.80;99.90
4962;DHT22;2496;52.468;13.342;2023-03-19T01:14:17;9.80;99.90
4962;DHT22;2496;52.468;13.342;2023-03-19T01:16:45;9.80;99.90
4962;DHT22;2496;52.468;13.342;2023-03-19T01:19:12;9.70;99.90
4962;DHT22;2496;52.468;13.342;2023-03-19T01:21:41;9.80;99.90
4962;DHT22;2496;52.468;13.342;2023-03-19T01:24:10;9.80;99.90
4962;DHT22;2496;52.468;13.342;2023-03-19T01:26:37;9.80;99.90
4962;DHT22;2496;52.468;13.342;2023-03-19T01:29:05;9.70;99.90
4962;DHT22;2496;52.468;13.342;2023-03-19T01:31:32;9.60;99.90
4962;DHT22;2496;52.468;13.342;2023-03-19T01:34:00;9.60;99.90
4962;DHT22;2496;52.468;13.342;2023-03-19T01:36:28;9.50;99.90
4962;DHT22;2496;52.468;13.342;2023-03-19T01:38:55;9.50;99.90
4962;DHT22;2496;52.468;13.342;2023-03-19T01:41:22;9.60;99.90
4962;DHT22;2496;52.468;13.342;2023-03-19T01:43:49;9.50;99.90
4962;DHT22;2496;52.468;13.342;2023-03-19T01:46:22;9.50;99.90
4962;DHT22;2496;52.468;13.342;2023-03-19T01:48:53;9.50;99.90
4962;DHT22;2496;52.468;13.342;2023-03-19T01:51:25;9.50;99.90
4962;DHT22;2496;52.468;13.342;2023-03-19T01:53:56;9.60;99.90
4962;DHT22;2496;52.468;13.342;2023-03-19T01:56:28;9.60;99.90
4962;DHT22;2496;52.468;13.342;2023-03-19T01:58:59;9.60;99.90
4962;DHT22;2496;52.468;13.342;2023-03-19T02:01:32;9.60;99.90
4962;DHT22;2496;52.468;13.342;2023-03-19T02:04:00;9.60;99.90
4962;DHT22;2496;52.468;13.342;2023-03-19T02:06:28;9.60;99.90
4962;DHT22;2496;52.468;13.342;2023-03-19T02:08:56;9.50;99.90
4962;DHT22;2496;52.468;13.342;2023-03-19T02:11:24;9.60;99.90
4962;DHT22;2496;52.468;13.342;2023-03-19T02:13:52;9.50;99.90
4962;DHT22;2496;52.468;13.342;2023-03-19T02:16:19;9.50;99.90
4962;DHT22;2496;52.468;13.342;2023-03-19T02:18:47;9.50;99.90
4962;DHT22;2496;52.468;13.342;2023-03-19T02:21:16;9.40;99.90
4962;DHT22;2496;52.468;13.342;2023-03-19T02:23:51;9.40;99.90
4962;DHT22;2496;52.468;13.342;2023-03-19T02:26:22;9.30;99.90
4962;DHT22;2496;52.468;13.342;2023-03-19T02:28:50;9.30;99.90
4962;DHT22;2496;52.468;13.342;2023-03-19T02:31:18;9.20;99.90
4962;DHT22;2496;52.468;13.342;2023-03-19T02:33:56;9.20;99.90
4962;DHT22;2496;52.468;13.342;2023-03-19T02:36:23;9.20;99.90
4962;DHT22;2496;52.468;13.342;2023-03-19T02:38:54;9.20;99.90
4962;DHT22;2496;52.468;13.342;2023-03-19T02:41:25;9.20;99.90
4962;DHT22;2496;52.468;13.342;2023-03-19T02:43:53;9.20;99.90
4962;DHT22;2496;52.468;13.342;2023-03-19T02:46:20;9.20;99.90
4962;DHT22;2496;52.468;13.342;2023-03-19T02:48:47;9.20;99.90
4962;DHT22;2496;52.468;13.342;2023-03-19T02:51:14;9.20;99.90
4962;DHT22;2496;52.468;13.342;2023-03-19T02:53:41;9.30;99.90
4962;DHT22;2496;52.468;13.342;2023-03-19T02:56:08;9.20;99.90
4962;DHT22;2496;52.468;13.342;2023-03-19T02:58:36;9.30;99.90
4962;DHT22;2496;52.468;13.342;2023-03-19T03:01:04;9.30;99.90
4962;DHT22;2496;52.468;13.342;2023-03-19T03:03:31;9.20;99.90
4962;DHT22;2496;52.468;13.342;2023-03-19T03:05:59;9.20;99.90
4962;DHT22;2496;52.468;13.342;2023-03-19T03:08:26;9.20;99.90
4962;DHT22;2496;52.468;13.342;2023-03-19T03:10:53;9.20;99.90
4962;DHT22;2496;52.468;13.342;2023-03-19T03:13:20;9.20;99.90
4962;DHT22;2496;52.468;13.342;2023-03-19T03:15:48;9.20;99.90
4962;DHT22;2496;52.468;13.342;2023-03-19T03:18:16;9.20;99.90
4962;DHT22;2496;52.468;13.342;2023-03-19T03:20:43;9.30;99.90
4962;DHT22;2496;52.468;13.342;2023-03-19T03:23:11;9.30;99.90
4962;DHT22;2496;52.468;13.342;2023-03-19T03:25:38;9.30;99.90
4962;DHT22;2496;52.468;13.342;2023-03-19T03:28:05;9.40;99.90
4962;DHT22;2496;52.468;13.342;2023-03-19T03:30:32;9.40;99.90
4962;DHT22;2496;52.468;13.342;2023-03-19T03:33:00;9.40;99.90
4962;DHT22;2496;52.468;13.342;2023-03-19T03:35:28;9.40;99.90
4962;DHT22;2496;52.468;13.342;2023-03-19T03:37:55;9.40;99.90
4962;DHT22;2496;52.468;13.342;2023-03-19T03:40:22;9.50;99.90
4962;DHT22;2496;52.468;13.342;2023-03-19T03:42:49;9.50;99.90
4962;DHT22;2496;52.468;13.342;2023-03-19T03:45:17;9.50;99.90
4962;DHT22;2496;52.468;13.342;2023-03-19T03:47:44;9.50;99.90
4962;DHT22;2496;52.468;13.342;2023-03-19T03:50:12;9.50;99.90
4962;DHT22;2496;52.468;13.342;2023-03-19T03:52:39;9.50;99.90
4962;DHT22;2496;52.468;13.342;2023-03-19T03:55:07;9.50;99.90
4962;DHT22;2496;52.468;13.342;2023-03-19T03:57:35;9.50;99.90
4962;DHT22;2496;52.468;13.342;2023-03-19T04:00:03;9.50;99.90
4962;DHT22;2496;52.468;13.342;2023-03-19T04:02:30;9.60;99.90
4962;DHT22;2496;52.468;13.342;2023-03-19T04:04:57;9.60;99.90
4962;DHT22;2496;52.468;13.342;2023-03-19T04:07:26;9.60;99.90
4962;DHT22;2496;52.468;13.342;2023-03-19T04:09:55;9.60;99.90
4962;DHT22;2496;52.468;13.342;2023-03-19T04:12:23;9.60;99.90
4962;DHT22;2496;52.468;13.342;2023-03-19T04:14:50;9.60;99.90
4962;DHT22;2496;52.468;13.342;2023-03-19T04:17:17;9.60;99.90
4962;DHT22;2496;52.468;13.342;2023-03-19T04:19:44;9.60;99.90
4962;DHT22;2496;52.468;13.342;2023-03-19T04:22:11;9.60;99.90
4962;DHT22;2496;52.468;13.342;2023-03-19T04:24:40;9.60;99.90
4962;DHT22;2496;52.468;13.342;2023-03-19T04:27:07;9.60;99.90
4962;DHT22;2496;52.468;13.342;2023-03-19T04:29:34;9.60;99.90
4962;DHT22;2496;52.468;13.342;2023-03-19T04:32:01;9.60;99.90
4962;DHT22;2496;52.468;13.342;2023-03-19T04:34:28;9.60;99.90
4962;DHT22;2496;52.468;13.342;2023-03-19T04:36:55;9.60;99.90
4962;DHT22;2496;52.468;13.342;2023-03-19T04:39:23;9.60;99.90
4962;DHT22;2496;52.468;13.342;2023-03-19T04:41:51;9.60;99.90
4962;DHT22;2496;52.468;13.342;2023-03-19T04:44:19;9.50;99.90
4962;DHT22;2496;52.468;13.342;2023-03-19T04:46:46;9.50;99.90
4962;DHT22;2496;52.468;13.342;2023-03-19T04:49:13;9.50;99.90
4962;DHT22;2496;52.468;13.342;2023-03-19T04:51:40;9.50;99.90
4962;DHT22;2496;52.468;13.342;2023-03-19T04:54:07;9.50;99.90
4962;DHT22;2496;52.468;13.342;2023-03-19T04:56:35;9.50;99.90
4962;DHT22;2496;52.468;13.342;2023-03-19T04:59:04;9.50;99.90
4962;DHT22;2496;52.468;13.342;2023-03-19T05:01:31;9.50;99.90
4962;DHT22;2496;52.468;13.342;2023-03-19T05:03:58;9.40;99.90
4962;DHT22;2496;52.468;13.342;2023-03-19T05:06:26;9.30;99.90
4962;DHT22;2496;52.468;13.342;2023-03-19T05:08:53;9.30;99.90
4962;DHT22;2496;52.468;13.342;2023-03-19T05:11:20;9.20;99.90
4962;DHT22;2496;52.468;13.342;2023-03-19T05:13:47;9.00;99.90
4962;DHT22;2496;52.468;13.342;2023-03-19T05:16:15;8.90;99.90
4962;DHT22;2496;52.468;13.342;2023-03-19T05:18:42;8.90;99.90
4962;DHT22;2496;52.468;13.342;2023-03-19T05:21:10;8.70;99.90
4962;DHT22;2496;52.468;13.342;2023-03-19T05:23:37;8.70;99.90
4962;DHT22;2496;52.468;13.342;2023-03-19T05:26:04;8.70;99.90
4962;DHT22;2496;52.468;13.342;2023-03-19T05:28:33;8.70;99.90
4962;DHT22;2496;52.468;13.342;2023-03-19T05:31:00;8.70;99.90
4962;DHT22;2496;52.468;13.342;2023-03-19T05:33:28;8.80;99.90
4962;DHT22;2496;52.468;13.342;2023-03-19T05:35:55;8.90;99.90
4962;DHT22;2496;52.468;13.342;2023-03-19T05:38:22;9.00;99.90
4962;DHT22;2496;52.468;13.342;2023-03-19T05:40:49;9.10;99.90
4962;DHT22;2496;52.468;13.342;2023-03-19T05:43:16;9.20;99.90
4962;DHT22;2496;52.468;13.342;2023-03-19T05:45:49;9.30;99.90
4962;DHT22;2496;52.468;13.342;2023-03-19T05:48:16;9.40;99.90
4962;DHT22;2496;52.468;13.342;2023-03-19T05:50:45;9.40;99.90
4962;DHT22;2496;52.468;13.342;2023-03-19T05:53:12;9.50;99.90
4962;DHT22;2496;52.468;13.342;2023-03-19T05:55:39;9.50;99.90
4962;DHT22;2496;52.468;13.342;2023-03-19T05:58:06;9.50;99.90
4962;DHT22;2496;52.468;13.342;2023-03-19T06:00:36;9.50;99.90
4962;DHT22;2496;52.468;13.342;2023-03-19T06:03:06;9.50;99.90
4962;DHT22;2496;52.468;13.342;2023-03-19T06:05:34;9.50;99.90
4962;DHT22;2496;52.468;13.342;2023-03-19T06:08:02;9.50;99.90
4962;DHT22;2496;52.468;13.342;2023-03-19T06:10:29;9.40;99.90
4962;DHT22;2496;52.468;13.342;2023-03-19T06:12:56;9.40;99.90
4962;DHT22;2496;52.468;13.342;2023-03-19T06:15:23;9.30;99.90
4962;DHT22;2496;52.468;13.342;2023-03-19T06:17:51;9.20;99.90
4962;DHT22;2496;52.468;13.342;2023-03-19T06:20:18;9.20;99.90
4962;DHT22;2496;52.468;13.342;2023-03-19T06:22:45;9.20;99.90
4962;DHT22;2496;52.468;13.342;2023-03-19T06:25:13;9.20;99.90
4962;DHT22;2496;52.468;13.342;2023-03-19T06:27:41;9.20;99.90
4962;DHT22;2496;52.468;13.342;2023-03-19T06:30:09;9.20;99.90
4962;DHT22;2496;52.468;13.342;2023-03-19T06:32:36;9.20;99.90
4962;DHT22;2496;52.468;13.342;2023-03-19T06:35:03;9.10;99.90
4962;DHT22;2496;52.468;13.342;2023-03-19T06:37:31;9.10;99.90
4962;DHT22;2496;52.468;13.342;2023-03-19T06:39:58;9.20;99.90
4962;DHT22;2496;52.468;13.342;2023-03-19T06:42:26;9.20;99.90
4962;DHT22;2496;52.468;13.342;2023-03-19T06:44:53;9.20;99.90
4962;DHT22;2496;52.468;13.342;2023-03-19T06:47:20;9.30;99.90
4962;DHT22;2496;52.468;13.342;2023-03-19T06:49:47;9.30;99.90
4962;DHT22;2496;52.468;13.342;2023-03-19T06:52:14;9.30;99.90
4962;DHT22;2496;52.468;13.342;2023-03-19T06:54:41;9.40;99.90
4962;DHT22;2496;52.468;13.342;2023-03-19T06:57:08;9.40;99.90
4962;DHT22;2496;52.468;13.342;2023-03-19T06:59:36;9.40;99.90
4962;DHT22;2496;52.468;13.342;2023-03-19T07:02:04;9.40;99.90
4962;DHT22;2496;52.468;13.342;2023-03-19T07:04:31;9.40;99.90
4962;DHT22;2496;52.468;13.342;2023-03-19T07:06:58;9.40;99.90
4962;DHT22;2496;52.468;13.342;2023-03-19T07:09:27;9.40;99.90
4962;DHT22;2496;52.468;13.342;2023-03-19T07:11:54;9.40;99.90
4962;DHT22;2496;52.468;13.342;2023-03-19T07:14:21;9.40;99.90
4962;DHT22;2496;52.468;13.342;2023-03-19T07:16:49;9.40;99.90
4962;DHT22;2496;52.468;13.342;2023-03-19T07:19:16;9.40;99.90
4962;DHT22;2496;52.468;13.342;2023-03-19T07:21:44;9.40;99.90
4962;DHT22;2496;52.468;13.342;2023-03-19T07:24:11;9.30;99.90
4962;DHT22;2496;52.468;13.342;2023-03-19T07:26:38;9.30;99.90
4962;DHT22;2496;52.468;13.342;2023-03-19T07:29:05;9.30;99.90
4962;DHT22;2496;52.468;13.342;2023-03-19T07:31:32;9.30;99.90
4962;DHT22;2496;52.468;13.342;2023-03-19T07:34:01;9.30;99.90
4962;DHT22;2496;52.468;13.342;2023-03-19T07:36:27;9.20;99.90
4962;DHT22;2496;52.468;13.342;2023-03-19T07:38:55;9.20;99.90
4962;DHT22;2496;52.468;13.342;2023-03-19T07:41:22;9.20;99.90
4962;DHT22;2496;52.468;13.342;2023-03-19T07:43:49;9.30;99.90
4962;DHT22;2496;52.468;13.342;2023-03-19T07:46:16;9.30;99.90
4962;DHT22;2496;52.468;13.342;2023-03-19T07:48:43;9.40;99.90
4962;DHT22;2496;52.468;13.342;2023-03-19T07:51:12;9.60;99.90
4962;DHT22;2496;52.468;13.342;2023-03-19T07:53:39;9.70;99.90
4962;DHT22;2496;52.468;13.342;2023-03-19T07:56:06;9.90;99.90
4962;DHT22;2496;52.468;13.342;2023-03-19T07:58:33;10.00;99.90
4962;DHT22;2496;52.468;13.342;2023-03-19T08:01:00;10.10;99.90
4962;DHT22;2496;52.468;13.342;2023-03-19T08:03:28;10.10;99.90
4962;DHT22;2496;52.468;13.342;2023-03-19T08:05:55;10.10;99.90
4962;DHT22;2496;52.468;13.342;2023-03-19T08:08:23;10.00;99.90
4962;DHT22;2496;52.468;13.342;2023-03-19T08:10:52;10.00;99.90
4962;DHT22;2496;52.468;13.342;2023-03-19T08:13:20;9.90;99.90
4962;DHT22;2496;52.468;13.342;2023-03-19T08:15:48;10.00;99.90
4962;DHT22;2496;52.468;13.342;2023-03-19T08:18:15;10.00;99.90
4962;DHT22;2496;52.468;13.342;2023-03-19T08:20:43;10.10;99.90
4962;DHT22;2496;52.468;13.342;2023-03-19T08:23:11;10.20;99.90
4962;DHT22;2496;52.468;13.342;2023-03-19T08:25:41;10.20;99.90
4962;DHT22;2496;52.468;13.342;2023-03-19T08:28:08;10.20;99.90
4962;DHT22;2496;52.468;13.342;2023-03-19T08:30:35;10.20;99.90
4962;DHT22;2496;52.468;13.342;2023-03-19T08:33:02;10.20;99.90
4962;DHT22;2496;52.468;13.342;2023-03-19T08:35:29;10.20;99.90
4962;DHT22;2496;52.468;13.342;2023-03-19T08:37:56;10.20;99.90
4962;DHT22;2496;52.468;13.342;2023-03-19T08:40:23;10.20;99.90
4962;DHT22;2496;52.468;13.342;2023-03-19T08:42:52;10.20;99.90
4962;DHT22;2496;52.468;13.342;2023-03-19T08:45:21;10.10;99.90
4962;DHT22;2496;52.468;13.342;2023-03-19T08:47:48;10.00;99.90
4962;DHT22;2496;52.468;13.342;2023-03-19T08:50:16;10.00;99.90
4962;DHT22;2496;52.468;13.342;2023-03-19T08:52:43;9.90;99.90
4962;DHT22;2496;52.468;13.342;2023-03-19T08:55:10;9.80;99.90
4962;DHT22;2496;52.468;13.342;2023-03-19T08:57:37;9.70;99.90
4962;DHT22;2496;52.468;13.342;2023-03-19T09:00:07;9.60;99.90
4962;DHT22;2496;52.468;13.342;2023-03-19T09:02:34;9.50;99.90
4962;DHT22;2496;52.468;13.342;2023-03-19T09:05:01;9.40;99.90
4962;DHT22;2496;52.468;13.342;2023-03-19T09:07:28;9.30;99.90
4962;DHT22;2496;52.468;13.342;2023-03-19T09:09:55;9.20;99.90
4962;DHT22;2496;52.468;13.342;2023-03-19T09:12:22;9.20;99.90
4962;DHT22;2496;52.468;13.342;2023-03-19T09:14:49;9.20;99.90
4962;DHT22;2496;52.468;13.342;2023-03-19T09:17:18;9.20;99.90
4962;DHT22;2496;52.468;13.342;2023-03-19T09:19:45;9.30;99.90
4962;DHT22;2496;52.468;13.342;2023-03-19T09:22:12;9.30;99.90
4962;DHT22;2496;52.468;13.342;2023-03-19T09:24:39;9.30;99.90
4962;DHT22;2496;52.468;13.342;2023-03-19T09:27:06;9.40;99.90
4962;DHT22;2496;52.468;13.342;2023-03-19T09:29:33;9.40;99.90
4962;DHT22;2496;52.468;13.342;2023-03-19T09:32:00;9.40;99.90
4962;DHT22;2496;52.468;13.342;2023-03-19T09:34:29;9.50;99.90
4962;DHT22;2496;52.468;13.342;2023-03-19T09:36:56;9.60;99.90
4962;DHT22;2496;52.468;13.342;2023-03-19T09:39:23;9.60;99.90
4962;DHT22;2496;52.468;13.342;2023-03-19T09:41:59;9.70;99.90
4962;DHT22;2496;52.468;13.342;2023-03-19T09:44:32;9.90;99.90
4962;DHT22;2496;52.468;13.342;2023-03-19T09:47:11;9.90;99.90
4962;DHT22;2496;52.468;13.342;2023-03-19T09:49:43;10.10;99.90
4962;DHT22;2496;52.468;13.342;2023-03-19T09:52:23;10.10;99.90
4962;DHT22;2496;52.468;13.342;2023-03-19T09:54:55;10.20;99.90
4962;DHT22;2496;52.468;13.342;2023-03-19T09:57:23;10.20;99.90
4962;DHT22;2496;52.468;13.342;2023-03-19T09:59:50;10.30;99.90
4962;DHT22;2496;52.468;13.342;2023-03-19T10:02:38;10.30;99.90
4962;DHT22;2496;52.468;13.342;2023-03-19T10:05:23;10.30;99.90
4962;DHT22;2496;52.468;13.342;2023-03-19T10:08:15;10.40;99.90
4962;DHT22;2496;52.468;13.342;2023-03-19T10:10:50;10.40;99.90
4962;DHT22;2496;52.468;13.342;2023-03-19T10:13:31;10.50;99.90
4962;DHT22;2496;52.468;13.342;2023-03-19T10:16:04;10.60;99.90
4962;DHT22;2496;52.468;13.342;2023-03-19T10:18:33;10.60;99.90
4962;DHT22;2496;52.468;13.342;2023-03-19T10:21:10;10.70;99.90
4962;DHT22;2496;52.468;13.342;2023-03-19T10:23:41;10.60;99.90
4962;DHT22;2496;52.468;13.342;2023-03-19T10:26:12;10.60;99.90
4962;DHT22;2496;52.468;13.342;2023-03-19T10:28:41;10.70;99.90
4962;DHT22;2496;52.468;13.342;2023-03-19T10:31:20;10.70;99.90
4962;DHT22;2496;52.468;13.342;2023-03-19T10:33:55;10.70;99.90
4962;DHT22;2496;52.468;13.342;2023-03-19T10:36:29;10.70;99.90
4962;DHT22;2496;52.468;13.342;2023-03-19T10:38:56;10.70;99.90
4962;DHT22;2496;52.468;13.342;2023-03-19T10:41:31;10.70;99.90
4962;DHT22;2496;52.468;13.342;2023-03-19T10:44:02;10.80;99.90
4962;DHT22;2496;52.468;13.342;2023-03-19T10:46:36;10.90;99.90
4962;DHT22;2496;52.468;13.342;2023-03-19T10:49:04;11.00;99.90
4962;DHT22;2496;52.468;13.342;2023-03-19T10:51:32;11.00;99.90
4962;DHT22;2496;52.468;13.342;2023-03-19T10:54:17;11.00;99.90
4962;DHT22;2496;52.468;13.342;2023-03-19T10:56:46;11.10;99.90
4962;DHT22;2496;52.468;13.342;2023-03-19T10:59:21;11.10;99.90
4962;DHT22;2496;52.468;13.342;2023-03-19T11:01:48;11.20;99.90
4962;DHT22;2496;52.468;13.342;2023-03-19T11:04:18;11.30;99.90
4962;DHT22;2496;52.468;13.342;2023-03-19T11:06:50;11.40;99.90
4962;DHT22;2496;52.468;13.342;2023-03-19T11:09:23;11.50;99.90
4962;DHT22;2496;52.468;13.342;2023-03-19T11:11:57;11.70;99.90
4962;DHT22;2496;52.468;13.342;2023-03-19T11:14:33;11.80;99.90
4962;DHT22;2496;52.468;13.342;2023-03-19T11:17:04;11.80;99.90
4962;DHT22;2496;52.468;13.342;2023-03-19T11:19:34;12.00;99.90
4962;DHT22;2496;52.468;13.342;2023-03-19T11:22:15;12.10;99.90
4962;DHT22;2496;52.468;13.342;2023-03-19T11:24:49;12.10;99.90
4962;DHT22;2496;52.468;13.342;2023-03-19T11:27:17;12.10;99.90
4962;DHT22;2496;52.468;13.342;2023-03-19T11:29:44;12.20;99.90
4962;DHT22;2496;52.468;13.342;2023-03-19T11:32:33;12.30;99.90
4962;DHT22;2496;52.468;13.342;2023-03-19T11:35:05;12.30;99.90
4962;DHT22;2496;52.468;13.342;2023-03-19T11:37:47;12.30;99.90
4962;DHT22;2496;52.468;13.342;2023-03-19T11:40:20;12.40;99.90
4962;DHT22;2496;52.468;13.342;2023-03-19T11:43:03;12.40;99.90
4962;DHT22;2496;52.468;13.342;2023-03-19T11:45:37;12.40;99.90
4962;DHT22;2496;52.468;13.342;2023-03-19T11:48:24;12.50;99.90
4962;DHT22;2496;52.468;13.342;2023-03-19T11:50:57;12.50;99.90
4962;DHT22;2496;52.468;13.342;2023-03-19T11:53:30;12.60;99.90
4962;DHT22;2496;52.468;13.342;2023-03-19T11:56:11;12.60;99.90
4962;DHT22;2496;52.468;13.342;2023-03-19T12:02:05;12.60;99.90
4962;DHT22;2496;52.468;13.342;2023-03-19T12:04:51;12.60;99.90
4962;DHT22;2496;52.468;13.342;2023-03-19T12:07:29;12.70;99.90
4962;DHT22;2496;52.468;13.342;2023-03-19T12:10:06;12.70;99.90
4962;DHT22;2496;52.468;13.342;2023-03-19T12:12:45;12.70;99.90
4962;DHT22;2496;52.468;13.342;2023-03-19T12:15:22;12.80;99.90
4962;DHT22;2496;52.468;13.342;2023-03-19T12:17:57;12.80;99.90
4962;DHT22;2496;52.468;13.342;2023-03-19T12:20:33;12.80;99.90
4962;DHT22;2496;52.468;13.342;2023-03-19T12:23:11;12.80;99.90
4962;DHT22;2496;52.468;13.342;2023-03-19T12:25:59;12.90;99.90
4962;DHT22;2496;52.468;13.342;2023-03-19T12:28:32;12.90;99.90
4962;DHT22;2496;52.468;13.342;2023-03-19T12:31:26;12.90;99.90
4962;DHT22;2496;52.468;13.342;2023-03-19T12:34:05;13.00;99.90
4962;DHT22;2496;52.468;13.342;2023-03-19T12:36:39;13.00;99.90
4962;DHT22;2496;52.468;13.342;2023-03-19T12:39:11;13.10;99.90
4962;DHT22;2496;52.468;13.342;2023-03-19T12:41:43;13.20;99.90
4962;DHT22;2496;52.468;13.342;2023-03-19T12:44:16;13.20;99.90
4962;DHT22;2496;52.468;13.342;2023-03-19T12:46:48;13.30;99.90
4962;DHT22;2496;52.468;13.342;2023-03-19T12:49:20;13.40;99.90
4962;DHT22;2496;52.468;13.342;2023-03-19T12:51:54;13.50;99.90
4962;DHT22;2496;52.468;13.342;2023-03-19T12:54:25;13.50;99.90
4962;DHT22;2496;52.468;13.342;2023-03-19T12:56:58;13.60;99.90
4962;DHT22;2496;52.468;13.342;2023-03-19T12:59:29;13.60;99.90
4962;DHT22;2496;52.468;13.342;2023-03-19T13:02:02;13.60;99.90
4962;DHT22;2496;52.468;13.342;2023-03-19T13:04:32;13.70;99.90
4962;DHT22;2496;52.468;13.342;2023-03-19T13:07:04;13.80;99.90
4962;DHT22;2496;52.468;13.342;2023-03-19T13:09:39;13.80;99.90
4962;DHT22;2496;52.468;13.342;2023-03-19T13:12:12;13.80;99.90
4962;DHT22;2496;52.468;13.342;2023-03-19T13:14:50;13.90;99.90
4962;DHT22;2496;52.468;13.342;2023-03-19T13:17:23;14.00;99.90
4962;DHT22;2496;52.468;13.342;2023-03-19T13:19:52;13.90;99.90
4962;DHT22;2496;52.468;13.342;2023-03-19T13:22:22;14.00;99.90
4962;DHT22;2496;52.468;13.342;2023-03-19T13:24:51;14.00;99.90
4962;DHT22;2496;52.468;13.342;2023-03-19T13:27:21;14.10;99.90
4962;DHT22;2496;52.468;13.342;2023-03-19T13:30:11;14.10;99.90
4962;DHT22;2496;52.468;13.342;2023-03-19T13:32:46;14.10;99.90
4962;DHT22;2496;52.468;13.342;2023-03-19T13:35:30;14.20;99.90
4962;DHT22;2496;52.468;13.342;2023-03-19T13:38:02;14.30;99.90
4962;DHT22;2496;52.468;13.342;2023-03-19T13:40:48;14.40;99.90
4962;DHT22;2496;52.468;13.342;2023-03-19T13:49:32;14.60;99.90
4962;DHT22;2496;52.468;13.342;2023-03-19T13:52:40;14.60;99.90
4962;DHT22;2496;52.468;13.342;2023-03-19T13:58:19;14.70;99.90
4962;DHT22;2496;52.468;13.342;2023-03-19T14:01:02;14.70;99.90
4962;DHT22;2496;52.468;13.342;2023-03-19T14:03:30;14.80;99.90
4962;DHT22;2496;52.468;13.342;2023-03-19T14:06:00;14.80;99.90
4962;DHT22;2496;52.468;13.342;2023-03-19T14:08:28;14.80;99.90
4962;DHT22;2496;52.468;13.342;2023-03-19T14:10:59;14.80;99.90
4962;DHT22;2496;52.468;13.342;2023-03-19T14:13:32;14.80;99.90
4962;DHT22;2496;52.468;13.342;2023-03-19T14:16:05;14.80;99.90
4962;DHT22;2496;52.468;13.342;2023-03-19T14:18:38;14.90;99.90
4962;DHT22;2496;52.468;13.342;2023-03-19T14:21:09;14.90;99.90
4962;DHT22;2496;52.468;13.342;2023-03-19T14:23:39;14.90;99.90
4962;DHT22;2496;52.468;13.342;2023-03-19T14:26:19;15.00;99.90
4962;DHT22;2496;52.468;13.342;2023-03-19T14:28:58;15.00;99.90
4962;DHT22;2496;52.468;13.342;2023-03-19T14:31:33;15.10;99.90
4962;DHT22;2496;52.468;13.342;2023-03-19T14:34:13;15.10;99.90
4962;DHT22;2496;52.468;13.342;2023-03-19T14:36:48;15.10;99.90
4962;DHT22;2496;52.468;13.342;2023-03-19T14:39:20;15.10;99.90
4962;DHT22;2496;52.468;13.342;2023-03-19T14:41:50;15.10;99.90
4962;DHT22;2496;52.468;13.342;2023-03-19T14:47:41;15.20;99.90
4962;DHT22;2496;52.468;13.342;2023-03-19T14:50:31;15.20;99.90
4962;DHT22;2496;52.468;13.342;2023-03-19T14:53:08;15.20;99.90
4962;DHT22;2496;52.468;13.342;2023-03-19T14:55:40;15.20;99.90
4962;DHT22;2496;52.468;13.342;2023-03-19T14:58:09;15.20;99.90
4962;DHT22;2496;52.468;13.342;2023-03-19T15:00:41;15.30;99.90
4962;DHT22;2496;52.468;13.342;2023-03-19T15:03:19;15.30;99.90
4962;DHT22;2496;52.468;13.342;2023-03-19T15:05:48;15.30;99.90
4962;DHT22;2496;52.468;13.342;2023-03-19T15:08:21;15.20;99.90
4962;DHT22;2496;52.468;13.342;2023-03-19T15:11:05;15.20;99.90
4962;DHT22;2496;52.468;13.342;2023-03-19T15:13:50;15.20;99.90
4962;DHT22;2496;52.468;13.342;2023-03-19T15:16:30;15.20;99.90
4962;DHT22;2496;52.468;13.342;2023-03-19T15:18:58;15.20;99.90
4962;DHT22;2496;52.468;13.342;2023-03-19T15:21:28;15.10;99.90
4962;DHT22;2496;52.468;13.342;2023-03-19T15:23:57;15.10;99.90
4962;DHT22;2496;52.468;13.342;2023-03-19T15:26:31;15.10;99.90
4962;DHT22;2496;52.468;13.342;2023-03-19T15:28:59;15.10;99.90
4962;DHT22;2496;52.468;13.342;2023-03-19T15:31:40;15.10;99.90
4962;DHT22;2496;52.468;13.342;2023-03-19T15:34:22;15.10;99.90
4962;DHT22;2496;52.468;13.342;2023-03-19T15:36:52;15.20;99.90
4962;DHT22;2496;52.468;13.342;2023-03-19T15:39:23;15.20;99.90
4962;DHT22;2496;52.468;13.342;2023-03-19T15:41:52;15.20;99.90
4962;DHT22;2496;52.468;13.342;2023-03-19T15:44:23;15.20;99.90
4962;DHT22;2496;52.468;13.342;2023-03-19T15:46:53;15.20;99.90
4962;DHT22;2496;52.468;13.342;2023-03-19T15:49:23;15.20;99.90
4962;DHT22;2496;52.468;13.342;2023-03-19T15:51:54;15.20;99.90
4962;DHT22;2496;52.468;13.342;2023-03-19T15:54:25;15.20;99.90
4962;DHT22;2496;52.468;13.342;2023-03-19T15:56:53;15.20;99.90
4962;DHT22;2496;52.468;13.342;2023-03-19T15:59:22;15.30;99.90
4962;DHT22;2496;52.468;13.342;2023-03-19T16:01:56;15.30;99.90
4962;DHT22;2496;52.468;13.342;2023-03-19T16:04:25;15.30;99.90
4962;DHT22;2496;52.468;13.342;2023-03-19T16:06:56;15.30;99.90
4962;DHT22;2496;52.468;13.342;2023-03-19T16:09:26;15.20;99.90
4962;DHT22;2496;52.468;13.342;2023-03-19T16:11:58;15.30;99.90
4962;DHT22;2496;52.468;13.342;2023-03-19T16:14:30;15.20;99.90
4962;DHT22;2496;52.468;13.342;2023-03-19T16:17:02;15.20;99.90
4962;DHT22;2496;52.468;13.342;2023-03-19T16:19:35;15.20;99.90
4962;DHT22;2496;52.468;13.342;2023-03-19T16:22:09;15.20;99.90
4962;DHT22;2496;52.468;13.342;2023-03-19T16:24:40;15.20;99.90
4962;DHT22;2496;52.468;13.342;2023-03-19T16:27:11;15.20;99.90
4962;DHT22;2496;52.468;13.342;2023-03-19T16:29:40;15.20;99.90